createdAt,value
2019-01-28T00:00:11.491Z,80.33
2019-01-28T00:01:11.477Z,80.44
2019-01-28T00:02:11.467Z,80.47
2019-01-28T00:03:11.455Z,80.54
2019-01-28T00:04:11.466Z,80.75
2019-01-28T00:05:11.436Z,82.03
2019-01-28T00:06:11.422Z,81.79
2019-01-28T00:07:11.410Z,81.37
2019-01-28T00:08:11.401Z,80.16
2019-01-28T00:09:11.415Z,80.02
2019-01-28T00:10:11.400Z,80.33
2019-01-28T00:11:11.365Z,80.54
2019-01-28T00:12:11.357Z,80.96
2019-01-28T00:13:11.347Z,80.75
2019-01-28T00:14:11.353Z,80.65
2019-01-28T00:15:11.322Z,80.13
2019-01-28T00:16:11.309Z,79.61
2019-01-28T00:17:11.300Z,80.13
2019-01-28T00:18:11.289Z,81.06
2019-01-28T00:19:11.295Z,80.02
2019-01-28T00:20:11.265Z,80.65
2019-01-28T00:21:11.253Z,80.65
2019-01-28T00:22:11.243Z,80.54
2019-01-28T00:23:11.234Z,80.54
2019-01-28T00:24:11.245Z,80.02
2019-01-28T00:25:11.209Z,80.44
2019-01-28T00:26:11.212Z,80.44
2019-01-28T00:27:11.187Z,80.54
2019-01-28T00:28:11.175Z,80.54
2019-01-28T00:29:11.197Z,80.65
2019-01-28T00:30:11.153Z,80.13
2019-01-28T00:31:11.144Z,80.65
2019-01-28T00:32:11.131Z,80.23
2019-01-28T00:33:11.125Z,80.75
2019-01-28T00:34:11.109Z,80.75
2019-01-28T00:35:11.123Z,81.37
2019-01-28T00:36:11.092Z,81.16
2019-01-28T00:37:11.076Z,80.75
2019-01-28T00:38:11.065Z,81.58
2019-01-28T00:39:11.053Z,81.89
2019-01-28T00:40:11.060Z,81.68
2019-01-28T00:41:11.030Z,81.58
2019-01-28T00:42:11.026Z,80.75
2019-01-28T00:43:11.010Z,80.65
2019-01-28T00:44:10.998Z,80.65
2019-01-28T00:45:11.011Z,80.65
2019-01-28T00:46:10.974Z,81.99
2019-01-28T00:47:10.969Z,81.16
2019-01-28T00:48:10.953Z,81.37
2019-01-28T00:49:10.946Z,81.06
2019-01-28T00:50:10.963Z,80.75
2019-01-28T00:51:10.922Z,81.58
2019-01-28T00:52:10.909Z,81.06
2019-01-28T00:53:10.906Z,81.99
2019-01-28T00:54:10.888Z,82.10
2019-01-28T00:55:10.915Z,81.37
2019-01-28T00:56:10.863Z,81.16
2019-01-28T00:57:10.853Z,81.06
2019-01-28T00:58:10.843Z,82.41
2019-01-28T00:59:10.875Z,81.89
2019-01-28T01:00:10.823Z,82.31
2019-01-28T01:01:10.826Z,81.58
2019-01-28T01:02:10.797Z,81.82
2019-01-28T01:03:10.785Z,81.79
2019-01-28T01:04:10.774Z,81.37
2019-01-28T01:05:10.763Z,81.27
2019-01-28T01:06:10.769Z,80.96
2019-01-28T01:07:10.742Z,81.06
2019-01-28T01:08:10.729Z,81.58
2019-01-28T01:09:10.718Z,80.65
2019-01-28T01:10:10.708Z,81.37
2019-01-28T01:11:10.715Z,80.54
2019-01-28T01:12:10.689Z,80.68
2019-01-28T01:13:10.671Z,80.75
2019-01-28T01:14:10.660Z,81.99
2019-01-28T01:15:10.649Z,81.37
2019-01-28T01:16:10.657Z,81.99
2019-01-28T01:17:10.630Z,81.58
2019-01-28T01:18:10.616Z,81.79
2019-01-28T01:19:10.604Z,82.14
2019-01-28T01:20:10.592Z,81.68
2019-01-28T01:21:10.602Z,81.58
2019-01-28T01:22:10.575Z,81.79
2019-01-28T01:23:10.559Z,82.62
2019-01-28T01:24:10.548Z,82.41
2019-01-28T01:25:10.540Z,82.41
2019-01-28T01:26:10.558Z,81.93
2019-01-28T01:27:10.515Z,82.14
2019-01-28T01:28:10.506Z,82.34
2019-01-28T01:29:10.493Z,82.45
2019-01-28T01:30:10.482Z,82.55
2019-01-28T01:31:10.470Z,82.76
2019-01-28T01:32:10.478Z,83.28
2019-01-28T01:33:10.448Z,83.28
2019-01-28T01:34:10.436Z,83.24
2019-01-28T01:35:10.428Z,82.86
2019-01-28T01:36:10.417Z,83.07
2019-01-28T01:37:10.424Z,82.76
2019-01-28T01:38:10.391Z,83.28
2019-01-28T01:39:10.385Z,83.07
2019-01-28T01:40:10.370Z,84.21
2019-01-28T01:41:10.373Z,84.11
2019-01-28T01:42:10.368Z,83.90
2019-01-28T01:43:10.352Z,84.21
2019-01-28T01:44:10.328Z,84.00
2019-01-28T01:45:10.329Z,84.00
2019-01-28T01:46:10.302Z,84.11
2019-01-28T01:47:10.313Z,84.31
2019-01-28T01:48:10.279Z,84.21
2019-01-28T01:49:10.284Z,84.31
2019-01-28T01:50:10.258Z,84.52
2019-01-28T01:51:10.246Z,84.52
2019-01-28T01:52:10.256Z,84.31
2019-01-28T01:53:10.224Z,84.00
2019-01-28T01:54:10.212Z,83.90
2019-01-28T01:55:10.201Z,83.90
2019-01-28T01:56:10.189Z,84.00
2019-01-28T01:57:10.241Z,83.69
2019-01-28T01:58:10.169Z,84.11
2019-01-28T01:59:10.167Z,84.31
2019-01-28T02:00:10.145Z,83.94
2019-01-28T02:01:10.134Z,84.00
2019-01-28T02:02:10.122Z,83.84
2019-01-28T02:03:10.149Z,84.31
2019-01-28T02:04:10.103Z,84.56
2019-01-28T02:05:10.104Z,83.94
2019-01-28T02:06:10.081Z,84.98
2019-01-28T02:07:10.070Z,85.19
2019-01-28T02:08:10.077Z,85.71
2019-01-28T02:09:10.045Z,85.19
2019-01-28T02:10:10.035Z,85.46
2019-01-28T02:11:10.024Z,84.88
2019-01-28T02:12:10.013Z,85.19
2019-01-28T02:13:10.018Z,85.04
2019-01-28T02:14:09.988Z,85.25
2019-01-28T02:15:09.976Z,85.25
2019-01-28T02:16:09.967Z,84.63
2019-01-28T02:17:09.956Z,85.46
2019-01-28T02:18:09.977Z,84.56
2019-01-28T02:19:09.932Z,84.56
2019-01-28T02:20:09.928Z,85.08
2019-01-28T02:21:09.917Z,85.50
2019-01-28T02:22:09.899Z,85.71
2019-01-28T02:23:09.887Z,86.33
2019-01-28T02:24:09.894Z,85.19
2019-01-28T02:25:09.864Z,85.39
2019-01-28T02:26:09.854Z,85.71
2019-01-28T02:27:09.843Z,85.08
2019-01-28T02:28:09.831Z,85.39
2019-01-28T02:29:09.841Z,85.39
2019-01-28T02:30:09.811Z,86.02
2019-01-28T02:31:09.802Z,86.33
2019-01-28T02:32:09.788Z,86.54
2019-01-28T02:33:09.774Z,85.50
2019-01-28T02:34:09.801Z,85.39
2019-01-28T02:35:09.757Z,85.77
2019-01-28T02:36:09.742Z,85.39
2019-01-28T02:37:09.745Z,84.98
2019-01-28T02:38:09.733Z,84.67
2019-01-28T02:39:09.707Z,84.56
2019-01-28T02:40:09.715Z,85.29
2019-01-28T02:41:09.691Z,85.29
2019-01-28T02:42:09.676Z,85.08
2019-01-28T02:43:09.663Z,84.63
2019-01-28T02:44:09.655Z,84.94
2019-01-28T02:45:09.663Z,85.60
2019-01-28T02:46:09.630Z,84.25
2019-01-28T02:47:09.619Z,84.42
2019-01-28T02:48:09.609Z,84.67
2019-01-28T02:49:09.598Z,84.46
2019-01-28T02:50:09.611Z,85.19
2019-01-28T02:51:09.576Z,84.88
2019-01-28T02:52:09.566Z,85.39
2019-01-28T02:53:09.554Z,85.19
2019-01-28T02:54:09.562Z,85.39
2019-01-28T02:55:09.563Z,85.19
2019-01-28T02:56:09.525Z,84.67
2019-01-28T02:57:09.514Z,84.98
2019-01-28T02:58:09.499Z,84.73
2019-01-28T02:59:09.486Z,83.84
2019-01-28T03:00:09.496Z,84.98
2019-01-28T03:01:09.464Z,84.56
2019-01-28T03:02:09.455Z,85.29
2019-01-28T03:03:09.443Z,85.29
2019-01-28T03:04:09.431Z,84.46
2019-01-28T03:05:09.444Z,84.98
2019-01-28T03:06:09.410Z,84.36
2019-01-28T03:07:09.404Z,84.91
2019-01-28T03:08:09.388Z,85.22
2019-01-28T03:09:09.376Z,85.43
2019-01-28T03:10:09.365Z,85.53
2019-01-28T03:11:10.522Z,85.53
2019-01-28T03:12:09.345Z,85.02
2019-01-28T03:13:09.337Z,85.85
2019-01-28T03:14:09.319Z,85.85
2019-01-28T03:15:09.309Z,86.57
2019-01-28T03:16:09.315Z,85.95
2019-01-28T03:17:09.288Z,86.36
2019-01-28T03:18:09.282Z,86.47
2019-01-28T03:19:09.262Z,86.57
2019-01-28T03:20:09.268Z,86.36
2019-01-28T03:21:09.272Z,86.47
2019-01-28T03:22:09.233Z,85.53
2019-01-28T03:23:09.221Z,86.19
2019-01-28T03:24:09.208Z,85.57
2019-01-28T03:25:09.197Z,86.61
2019-01-28T03:26:09.185Z,87.03
2019-01-28T03:27:09.195Z,87.71
2019-01-28T03:28:09.164Z,87.34
2019-01-28T03:29:09.154Z,87.86
2019-01-28T03:30:09.159Z,87.65
2019-01-28T03:31:09.133Z,87.86
2019-01-28T03:32:09.141Z,86.82
2019-01-28T03:33:09.135Z,86.57
2019-01-28T03:34:09.096Z,86.72
2019-01-28T03:35:09.085Z,86.57
2019-01-28T03:36:09.075Z,86.82
2019-01-28T03:37:09.083Z,86.51
2019-01-28T03:38:09.052Z,87.34
2019-01-28T03:39:09.047Z,87.34
2019-01-28T03:40:09.030Z,87.76
2019-01-28T03:41:09.021Z,87.40
2019-01-28T03:42:09.060Z,87.09
2019-01-28T03:43:09.001Z,87.19
2019-01-28T03:44:08.988Z,86.99
2019-01-28T03:45:08.980Z,86.99
2019-01-28T03:46:09.860Z,86.72
2019-01-28T03:47:08.958Z,86.82
2019-01-28T03:48:08.963Z,87.19
2019-01-28T03:49:08.932Z,87.03
2019-01-28T03:50:08.920Z,86.68
2019-01-28T03:51:08.910Z,87.13
2019-01-28T03:52:08.903Z,87.34
2019-01-28T03:53:08.912Z,87.13
2019-01-28T03:54:08.875Z,86.61
2019-01-28T03:55:08.865Z,86.68
2019-01-28T03:56:08.854Z,86.72
2019-01-28T03:57:08.845Z,86.36
2019-01-28T03:58:08.857Z,87.65
2019-01-28T03:59:08.819Z,86.41
2019-01-28T04:00:08.810Z,87.13
2019-01-28T04:01:08.805Z,86.93
2019-01-28T04:02:08.792Z,87.13
2019-01-28T04:03:08.798Z,87.27
2019-01-28T04:04:08.770Z,87.03
2019-01-28T04:05:08.758Z,87.27
2019-01-28T04:06:08.744Z,87.17
2019-01-28T04:07:08.736Z,88.00
2019-01-28T04:08:08.750Z,87.96
2019-01-28T04:09:08.713Z,88.07
2019-01-28T04:10:08.704Z,87.59
2019-01-28T04:11:08.691Z,87.69
2019-01-28T04:12:08.680Z,87.59
2019-01-28T04:13:08.684Z,88.10
2019-01-28T04:14:08.677Z,87.90
2019-01-28T04:15:08.646Z,87.90
2019-01-28T04:16:08.638Z,87.96
2019-01-28T04:17:08.627Z,88.48
2019-01-28T04:18:08.612Z,87.96
2019-01-28T04:19:08.621Z,87.27
2019-01-28T04:20:08.590Z,87.59
2019-01-28T04:21:08.580Z,88.21
2019-01-28T04:22:08.572Z,87.90
2019-01-28T04:23:08.563Z,87.27
2019-01-28T04:24:08.578Z,88.21
2019-01-28T04:25:08.535Z,87.90
2019-01-28T04:26:08.525Z,87.69
2019-01-28T04:27:08.519Z,87.79
2019-01-28T04:28:08.501Z,88.00
2019-01-28T04:29:08.510Z,87.90
2019-01-28T04:30:08.481Z,87.90
2019-01-28T04:31:08.492Z,88.10
2019-01-28T04:32:08.458Z,87.69
2019-01-28T04:33:08.456Z,88.10
2019-01-28T04:34:08.454Z,88.21
2019-01-28T04:35:08.424Z,86.86
2019-01-28T04:36:08.413Z,87.01
2019-01-28T04:37:08.403Z,87.27
2019-01-28T04:38:08.389Z,87.69
2019-01-28T04:39:08.427Z,87.11
2019-01-28T04:40:08.379Z,87.52
2019-01-28T04:41:08.362Z,87.32
2019-01-28T04:42:08.346Z,87.94
2019-01-28T04:43:08.334Z,88.15
2019-01-28T04:44:08.325Z,87.94
2019-01-28T04:45:08.335Z,88.46
2019-01-28T04:46:08.316Z,88.04
2019-01-28T04:47:08.291Z,87.98
2019-01-28T04:48:08.327Z,88.35
2019-01-28T04:49:08.271Z,88.04
2019-01-28T04:50:08.279Z,88.67
2019-01-28T04:51:08.246Z,87.84
2019-01-28T04:52:08.238Z,87.63
2019-01-28T04:53:08.224Z,88.04
2019-01-28T04:54:08.214Z,88.15
2019-01-28T04:55:08.220Z,88.25
2019-01-28T04:56:08.191Z,88.04
2019-01-28T04:57:08.180Z,88.04
2019-01-28T04:58:08.171Z,88.67
2019-01-28T04:59:08.160Z,88.04
2019-01-28T05:00:08.165Z,87.84
2019-01-28T05:01:08.137Z,88.40
2019-01-28T05:02:08.124Z,87.73
2019-01-28T05:03:08.127Z,88.09
2019-01-28T05:04:08.103Z,88.25
2019-01-28T05:05:08.130Z,88.67
2019-01-28T05:06:08.080Z,88.04
2019-01-28T05:07:08.070Z,88.35
2019-01-28T05:08:08.057Z,88.67
2019-01-28T05:09:08.055Z,88.98
2019-01-28T05:10:08.044Z,89.29
2019-01-28T05:11:08.041Z,89.39
2019-01-28T05:12:08.014Z,88.46
2019-01-28T05:13:08.002Z,88.25
2019-01-28T05:14:07.993Z,88.46
2019-01-28T05:15:07.980Z,87.94
2019-01-28T05:16:07.987Z,88.56
2019-01-28T05:17:07.957Z,87.73
2019-01-28T05:18:07.945Z,88.10
2019-01-28T05:19:07.935Z,87.90
2019-01-28T05:20:07.924Z,88.10
2019-01-28T05:21:07.935Z,88.00
2019-01-28T05:22:07.901Z,87.79
2019-01-28T05:23:07.893Z,88.10
2019-01-28T05:24:07.888Z,87.79
2019-01-28T05:25:07.871Z,87.38
2019-01-28T05:26:07.877Z,87.79
2019-01-28T05:27:07.846Z,88.00
2019-01-28T05:28:07.843Z,88.00
2019-01-28T05:29:07.824Z,88.10
2019-01-28T05:30:07.814Z,88.35
2019-01-28T05:31:07.824Z,88.00
2019-01-28T05:32:07.793Z,88.10
2019-01-28T05:33:16.247Z,87.69
2019-01-28T05:34:07.773Z,88.04
2019-01-28T05:35:07.759Z,87.69
2019-01-28T05:36:07.772Z,88.00
2019-01-28T05:37:07.757Z,87.73
2019-01-28T05:38:07.735Z,88.35
2019-01-28T05:39:07.769Z,88.77
2019-01-28T05:40:07.703Z,89.18
2019-01-28T05:41:07.709Z,89.04
2019-01-28T05:42:07.733Z,89.46
2019-01-28T05:43:07.670Z,89.18
2019-01-28T05:44:07.657Z,89.18
2019-01-28T05:45:07.713Z,89.15
2019-01-28T05:46:07.701Z,88.84
2019-01-28T05:47:07.645Z,89.15
2019-01-28T05:48:07.614Z,88.46
2019-01-28T05:49:07.602Z,89.18
2019-01-28T05:50:07.591Z,88.62
2019-01-28T05:51:07.579Z,88.87
2019-01-28T05:52:07.588Z,89.15
2019-01-28T05:53:16.241Z,89.18
2019-01-28T05:54:07.548Z,88.84
2019-01-28T05:55:07.536Z,89.29
2019-01-28T05:56:07.524Z,88.73
2019-01-28T05:57:08.683Z,88.62
2019-01-28T05:58:07.505Z,89.36
2019-01-28T05:59:07.490Z,89.15
2019-01-28T06:00:07.480Z,89.36
2019-01-28T06:01:07.472Z,88.21
2019-01-28T06:02:07.480Z,87.90
2019-01-28T06:03:07.449Z,88.25
2019-01-28T06:04:07.434Z,87.94
2019-01-28T06:05:07.426Z,88.98
2019-01-28T06:06:07.415Z,88.77
2019-01-28T06:07:07.421Z,87.73
2019-01-28T06:08:07.395Z,88.46
2019-01-28T06:09:07.381Z,87.94
2019-01-28T06:10:07.366Z,88.04
2019-01-28T06:11:07.358Z,88.35
2019-01-28T06:12:07.370Z,88.25
2019-01-28T06:13:07.338Z,88.67
2019-01-28T06:14:07.323Z,88.46
2019-01-28T06:15:07.312Z,88.15
2019-01-28T06:16:07.300Z,87.73
2019-01-28T06:17:07.309Z,87.84
2019-01-28T06:18:07.279Z,88.15
2019-01-28T06:19:07.420Z,87.84
2019-01-28T06:20:07.256Z,88.04
2019-01-28T06:21:07.254Z,88.25
2019-01-28T06:22:07.253Z,88.25
2019-01-28T06:23:07.224Z,87.94
2019-01-28T06:24:07.210Z,88.15
2019-01-28T06:25:07.200Z,88.04
2019-01-28T06:26:07.187Z,87.94
2019-01-28T06:27:07.195Z,88.15
2019-01-28T06:28:07.166Z,88.67
2019-01-28T06:29:07.159Z,88.25
2019-01-28T06:30:07.144Z,88.98
2019-01-28T06:31:07.133Z,88.46
2019-01-28T06:32:07.139Z,88.15
2019-01-28T06:33:07.110Z,88.25
2019-01-28T06:34:07.102Z,87.88
2019-01-28T06:35:07.090Z,88.50
2019-01-28T06:36:07.081Z,88.46
2019-01-28T06:37:07.083Z,89.43
2019-01-28T06:38:07.056Z,88.98
2019-01-28T06:39:07.042Z,89.39
2019-01-28T06:40:07.032Z,88.19
2019-01-28T06:41:07.022Z,88.40
2019-01-28T06:42:07.028Z,88.15
2019-01-28T06:43:07.004Z,88.19
2019-01-28T06:44:06.990Z,88.29
2019-01-28T06:45:06.982Z,88.50
2019-01-28T06:46:06.965Z,87.94
2019-01-28T06:47:16.699Z,88.09
2019-01-28T06:48:06.945Z,89.12
2019-01-28T06:49:06.930Z,89.02
2019-01-28T06:50:06.921Z,88.35
2019-01-28T06:51:06.910Z,88.29
2019-01-28T06:52:06.916Z,88.46
2019-01-28T06:53:06.886Z,88.19
2019-01-28T06:54:06.877Z,88.35
2019-01-28T06:55:06.865Z,88.15
2019-01-28T06:56:06.854Z,88.09
2019-01-28T06:57:06.861Z,87.77
2019-01-28T06:58:06.856Z,87.98
2019-01-28T06:59:06.828Z,88.09
2019-01-28T07:00:06.808Z,88.09
2019-01-28T07:01:06.883Z,88.60
2019-01-28T07:02:06.811Z,88.09
2019-01-28T07:03:06.777Z,87.98
2019-01-28T07:04:06.766Z,88.29
2019-01-28T07:05:06.755Z,88.09
2019-01-28T07:06:06.741Z,88.33
2019-01-28T07:07:06.749Z,88.54
2019-01-28T07:08:06.723Z,89.23
2019-01-28T07:09:06.710Z,89.23
2019-01-28T07:10:06.699Z,89.06
2019-01-28T07:11:15.053Z,89.43
2019-01-28T07:12:06.712Z,88.75
2019-01-28T07:13:06.664Z,89.37
2019-01-28T07:14:06.653Z,89.27
2019-01-28T07:15:06.641Z,89.48
2019-01-28T07:16:06.631Z,88.33
2019-01-28T07:17:06.638Z,89.27
2019-01-28T07:18:06.615Z,88.92
2019-01-28T07:19:06.603Z,89.17
2019-01-28T07:20:06.587Z,88.96
2019-01-28T07:21:06.581Z,88.92
2019-01-28T07:22:06.584Z,89.23
2019-01-28T07:23:06.554Z,89.69
2019-01-28T07:24:06.545Z,89.37
2019-01-28T07:25:06.534Z,88.81
2019-01-28T07:26:06.526Z,88.96
2019-01-28T07:27:06.530Z,89.27
2019-01-28T07:28:06.501Z,88.96
2019-01-28T07:29:06.488Z,88.92
2019-01-28T07:30:06.478Z,88.85
2019-01-28T07:31:06.466Z,89.02
2019-01-28T07:32:06.475Z,89.23
2019-01-28T07:33:06.447Z,89.43
2019-01-28T07:34:06.434Z,88.81
2019-01-28T07:35:06.423Z,89.33
2019-01-28T07:36:06.412Z,89.12
2019-01-28T07:37:06.421Z,89.23
2019-01-28T07:38:06.390Z,89.23
2019-01-28T07:39:06.380Z,89.43
2019-01-28T07:40:06.381Z,90.16
2019-01-28T07:41:06.357Z,89.95
2019-01-28T07:42:06.365Z,89.95
2019-01-28T07:43:06.338Z,89.64
2019-01-28T07:44:06.324Z,89.85
2019-01-28T07:45:06.314Z,89.64
2019-01-28T07:46:06.302Z,89.70
2019-01-28T07:47:06.321Z,90.06
2019-01-28T07:48:06.279Z,88.92
2019-01-28T07:49:06.268Z,89.08
2019-01-28T07:50:06.259Z,88.92
2019-01-28T07:51:06.252Z,89.18
2019-01-28T07:52:06.235Z,89.60
2019-01-28T07:53:06.243Z,89.02
2019-01-28T07:54:06.214Z,89.50
2019-01-28T07:55:06.203Z,89.92
2019-01-28T07:56:06.196Z,89.81
2019-01-28T07:57:06.181Z,89.81
2019-01-28T07:58:06.193Z,90.02
2019-01-28T07:59:06.159Z,89.60
2019-01-28T08:00:06.151Z,89.92
2019-01-28T08:01:06.140Z,89.92
2019-01-28T08:02:06.127Z,89.81
2019-01-28T08:03:06.137Z,89.70
2019-01-28T08:04:06.105Z,90.02
2019-01-28T08:05:06.093Z,89.60
2019-01-28T08:06:06.082Z,89.98
2019-01-28T08:07:06.072Z,89.81
2019-01-28T08:08:06.084Z,89.77
2019-01-28T08:09:06.049Z,89.87
2019-01-28T08:10:06.042Z,89.98
2019-01-28T08:11:06.026Z,90.08
2019-01-28T08:12:06.017Z,89.77
2019-01-28T08:13:06.025Z,89.52
2019-01-28T08:14:06.008Z,89.56
2019-01-28T08:15:05.993Z,89.36
2019-01-28T08:16:05.970Z,89.11
2019-01-28T08:17:05.964Z,88.94
2019-01-28T08:18:10.642Z,89.15
2019-01-28T08:19:05.939Z,88.69
2019-01-28T08:20:11.396Z,88.69
2019-01-28T08:21:05.925Z,89.00
2019-01-28T08:22:05.905Z,89.00
2019-01-28T08:23:05.919Z,89.11
2019-01-28T08:24:05.885Z,89.00
2019-01-28T08:25:05.880Z,89.11
2019-01-28T08:26:05.860Z,88.90
2019-01-28T08:27:05.848Z,89.11
2019-01-28T08:28:05.862Z,89.42
2019-01-28T08:29:05.829Z,88.90
2019-01-28T08:30:05.815Z,88.02
2019-01-28T08:31:05.805Z,88.07
2019-01-28T08:32:05.793Z,88.48
2019-01-28T08:33:05.803Z,88.48
2019-01-28T08:34:05.773Z,88.23
2019-01-28T08:35:05.760Z,88.90
2019-01-28T08:36:05.749Z,88.59
2019-01-28T08:37:05.738Z,88.34
2019-01-28T08:38:05.750Z,88.13
2019-01-28T08:39:05.717Z,88.02
2019-01-28T08:40:05.703Z,89.06
2019-01-28T08:41:05.693Z,89.06
2019-01-28T08:42:05.683Z,88.34
2019-01-28T08:43:05.699Z,88.34
2019-01-28T08:44:05.663Z,88.54
2019-01-28T08:45:05.647Z,88.13
2019-01-28T08:46:05.638Z,88.65
2019-01-28T08:47:05.626Z,88.13
2019-01-28T08:48:05.634Z,87.82
2019-01-28T08:49:05.605Z,88.13
2019-01-28T08:50:05.593Z,87.92
2019-01-28T08:51:05.582Z,88.44
2019-01-28T08:52:05.570Z,89.06
2019-01-28T08:53:05.579Z,88.85
2019-01-28T08:54:05.547Z,88.13
2019-01-28T08:55:05.536Z,88.96
2019-01-28T08:56:05.525Z,88.65
2019-01-28T08:57:05.516Z,89.06
2019-01-28T08:58:05.522Z,89.23
2019-01-28T08:59:05.498Z,88.20
2019-01-28T09:00:05.482Z,88.09
2019-01-28T09:01:05.475Z,88.61
2019-01-28T09:02:05.458Z,87.99
2019-01-28T09:03:05.471Z,87.99
2019-01-28T09:04:05.437Z,87.68
2019-01-28T09:05:05.424Z,87.99
2019-01-28T09:06:05.416Z,87.47
2019-01-28T09:07:05.404Z,88.09
2019-01-28T09:08:05.410Z,87.68
2019-01-28T09:09:05.379Z,87.47
2019-01-28T09:10:05.368Z,87.92
2019-01-28T09:11:05.360Z,87.78
2019-01-28T09:12:05.349Z,88.51
2019-01-28T09:13:05.359Z,88.92
2019-01-28T09:14:05.323Z,88.30
2019-01-28T09:15:05.312Z,87.99
2019-01-28T09:16:05.302Z,88.30
2019-01-28T09:17:05.291Z,88.09
2019-01-28T09:18:05.303Z,87.78
2019-01-28T09:19:05.271Z,87.78
2019-01-28T09:20:05.259Z,88.09
2019-01-28T09:21:05.246Z,88.36
2019-01-28T09:22:05.234Z,88.09
2019-01-28T09:23:05.243Z,87.88
2019-01-28T09:24:05.218Z,87.88
2019-01-28T09:25:05.201Z,87.47
2019-01-28T09:26:06.598Z,87.26
2019-01-28T09:27:05.179Z,87.74
2019-01-28T09:28:05.191Z,87.05
2019-01-28T09:29:05.158Z,87.57
2019-01-28T09:30:05.146Z,87.78
2019-01-28T09:31:05.135Z,87.82
2019-01-28T09:32:05.124Z,88.09
2019-01-28T09:33:05.131Z,88.30
2019-01-28T09:34:05.101Z,87.78
2019-01-28T09:35:05.098Z,87.99
2019-01-28T09:36:05.078Z,87.88
2019-01-28T09:37:05.071Z,87.88
2019-01-28T09:38:05.076Z,88.40
2019-01-28T09:39:05.047Z,89.23
2019-01-28T09:40:05.039Z,89.27
2019-01-28T09:41:05.022Z,88.13
2019-01-28T09:42:05.013Z,88.54
2019-01-28T09:43:05.034Z,88.51
2019-01-28T09:44:04.992Z,88.61
2019-01-28T09:45:04.985Z,88.09
2019-01-28T09:46:04.974Z,87.99
2019-01-28T09:47:04.957Z,89.06
2019-01-28T09:48:04.970Z,89.03
2019-01-28T09:49:04.956Z,88.71
2019-01-28T09:50:04.925Z,88.61
2019-01-28T09:51:04.915Z,88.92
2019-01-28T09:52:04.903Z,88.51
2019-01-28T09:53:04.892Z,89.03
2019-01-28T09:54:04.898Z,89.03
2019-01-28T09:55:04.867Z,89.03
2019-01-28T09:56:04.858Z,88.92
2019-01-28T09:57:04.844Z,88.71
2019-01-28T09:58:04.838Z,88.71
2019-01-28T09:59:04.840Z,89.03
2019-01-28T10:00:04.816Z,88.09
2019-01-28T10:01:04.798Z,88.36
2019-01-28T10:02:04.791Z,87.63
2019-01-28T10:03:04.778Z,87.84
2019-01-28T10:04:04.821Z,87.95
2019-01-28T10:05:04.756Z,88.05
2019-01-28T10:06:04.744Z,87.74
2019-01-28T10:07:04.735Z,87.53
2019-01-28T10:08:04.721Z,88.26
2019-01-28T10:09:10.039Z,88.05
2019-01-28T10:10:04.701Z,87.53
2019-01-28T10:11:04.690Z,88.15
2019-01-28T10:12:04.681Z,88.05
2019-01-28T10:13:57.095Z,87.84
2019-01-28T10:14:57.059Z,87.49
2019-01-28T10:15:57.054Z,88.11
2019-01-28T10:16:57.044Z,88.15
2019-01-28T10:17:57.029Z,87.84
2019-01-28T10:18:57.037Z,88.53
2019-01-28T10:19:57.008Z,88.36
2019-01-28T10:20:56.993Z,87.80
2019-01-28T10:21:56.986Z,88.05
2019-01-28T10:22:56.970Z,87.80
2019-01-28T10:23:56.982Z,87.84
2019-01-28T10:24:56.948Z,87.84
2019-01-28T10:25:57.859Z,88.36
2019-01-28T10:26:56.930Z,88.88
2019-01-28T10:27:56.915Z,88.98
2019-01-28T10:28:56.925Z,88.46
2019-01-28T10:29:56.891Z,88.88
2019-01-28T10:30:56.880Z,89.13
2019-01-28T10:31:56.874Z,89.29
2019-01-28T10:32:56.864Z,89.81
2019-01-28T10:33:56.869Z,89.40
2019-01-28T10:34:56.837Z,89.61
2019-01-28T10:35:56.826Z,89.81
2019-01-28T10:36:56.823Z,88.46
2019-01-28T10:37:56.814Z,88.88
2019-01-28T10:38:56.832Z,88.88
2019-01-28T10:39:56.780Z,88.88
2019-01-28T10:40:56.770Z,88.46
2019-01-28T10:41:56.757Z,88.67
2019-01-28T10:42:56.752Z,88.46
2019-01-28T10:43:56.756Z,88.98
2019-01-28T10:44:56.727Z,88.98
2019-01-28T10:45:56.713Z,88.78
2019-01-28T10:46:56.703Z,88.73
2019-01-28T10:48:00.611Z,88.42
2019-01-28T10:48:56.701Z,88.98
2019-01-28T10:49:56.668Z,89.09
2019-01-28T10:50:56.657Z,88.53
2019-01-28T10:51:58.136Z,88.32
2019-01-28T10:52:56.637Z,87.84
2019-01-28T10:53:56.648Z,87.53
2019-01-28T10:54:56.616Z,88.32
2019-01-28T10:55:56.602Z,88.42
2019-01-28T10:56:56.597Z,88.53
2019-01-28T10:57:56.579Z,88.36
2019-01-28T10:58:56.596Z,87.90
2019-01-28T10:59:56.561Z,88.05
2019-01-28T11:00:56.551Z,87.63
2019-01-28T11:01:56.534Z,88.15
2019-01-28T11:02:56.526Z,88.26
2019-01-28T11:03:56.533Z,88.98
2019-01-28T11:04:56.502Z,88.78
2019-01-28T11:05:56.496Z,88.05
2019-01-28T11:06:56.479Z,87.84
2019-01-28T11:07:56.467Z,88.51
2019-01-28T11:08:56.476Z,88.40
2019-01-28T11:09:56.503Z,88.20
2019-01-28T11:10:56.433Z,89.03
2019-01-28T11:11:56.509Z,88.82
2019-01-28T11:12:56.524Z,88.82
2019-01-28T11:13:56.520Z,89.06
2019-01-28T11:14:56.494Z,88.75
2019-01-28T11:15:56.388Z,88.85
2019-01-28T11:16:56.390Z,89.27
2019-01-28T11:17:56.365Z,88.54
2019-01-28T11:18:57.822Z,88.85
2019-01-28T11:19:56.373Z,88.85
2019-01-28T11:20:56.339Z,88.96
2019-01-28T11:21:56.334Z,88.65
2019-01-28T11:22:56.300Z,88.23
2019-01-28T11:23:56.377Z,89.11
2019-01-28T11:24:56.396Z,88.75
2019-01-28T11:25:56.319Z,87.96
2019-01-28T11:26:56.360Z,88.34
2019-01-28T11:27:56.367Z,87.82
2019-01-28T11:28:56.364Z,88.13
2019-01-28T11:29:56.327Z,87.71
2019-01-28T11:30:56.338Z,87.82
2019-01-28T11:31:56.277Z,87.96
2019-01-28T11:32:56.194Z,88.02
2019-01-28T11:33:56.198Z,88.59
2019-01-28T11:34:56.220Z,89.11
2019-01-28T11:35:57.425Z,89.06
2019-01-28T11:36:56.234Z,89.52
2019-01-28T11:37:56.229Z,89.52
2019-01-28T11:38:56.225Z,89.27
2019-01-28T11:39:56.147Z,89.58
2019-01-28T11:40:56.107Z,89.73
2019-01-28T11:41:56.160Z,89.48
2019-01-28T11:42:56.083Z,89.37
2019-01-28T11:43:56.085Z,89.89
2019-01-28T11:44:56.103Z,89.69
2019-01-28T11:45:56.047Z,89.27
2019-01-28T11:46:56.105Z,89.27
2019-01-28T11:47:56.022Z,89.89
2019-01-28T11:48:56.045Z,89.89
2019-01-28T11:49:56.204Z,89.89
2019-01-28T11:50:56.465Z,90.20
2019-01-28T11:51:55.978Z,89.65
2019-01-28T11:52:55.967Z,89.23
2019-01-28T11:53:55.952Z,89.34
2019-01-28T11:54:55.961Z,89.23
2019-01-28T11:55:55.930Z,89.75
2019-01-28T11:56:55.929Z,89.75
2019-01-28T11:57:55.909Z,89.65
2019-01-28T11:58:55.900Z,89.44
2019-01-28T11:59:55.908Z,89.03
2019-01-28T12:00:55.877Z,89.29
2019-01-28T12:01:55.865Z,89.19
2019-01-28T12:02:55.855Z,89.75
2019-01-28T12:03:55.842Z,89.61
2019-01-28T12:04:55.855Z,89.71
2019-01-28T12:05:55.823Z,89.40
2019-01-28T12:06:55.808Z,89.40
2019-01-28T12:07:55.796Z,89.81
2019-01-28T12:08:55.787Z,89.61
2019-01-28T12:09:55.793Z,89.29
2019-01-28T12:10:55.765Z,89.40
2019-01-28T12:11:55.752Z,90.12
2019-01-28T12:12:55.743Z,90.33
2019-01-28T12:13:55.731Z,90.33
2019-01-28T12:14:55.738Z,89.71
2019-01-28T12:15:55.714Z,90.23
2019-01-28T12:16:55.742Z,90.02
2019-01-28T12:17:55.687Z,89.92
2019-01-28T12:18:55.678Z,89.98
2019-01-28T12:19:55.687Z,89.87
2019-01-28T12:20:55.657Z,89.98
2019-01-28T12:21:55.642Z,90.08
2019-01-28T12:22:55.633Z,89.87
2019-01-28T12:23:55.620Z,90.08
2019-01-28T12:24:55.626Z,89.98
2019-01-28T12:25:55.601Z,89.46
2019-01-28T12:26:55.585Z,89.67
2019-01-28T12:27:55.575Z,89.36
2019-01-28T12:28:55.564Z,89.62
2019-01-28T12:29:55.575Z,89.11
2019-01-28T12:30:55.544Z,89.42
2019-01-28T12:31:55.530Z,89.11
2019-01-28T12:32:55.532Z,88.39
2019-01-28T12:33:55.507Z,88.90
2019-01-28T12:34:55.517Z,89.00
2019-01-28T12:35:55.497Z,88.69
2019-01-28T12:36:55.477Z,88.59
2019-01-28T12:37:55.463Z,89.11
2019-01-28T12:38:55.459Z,89.11
2019-01-28T12:39:55.461Z,88.69
2019-01-28T12:40:55.430Z,88.76
2019-01-28T12:41:55.418Z,88.79
2019-01-28T12:42:55.410Z,89.11
2019-01-28T12:43:55.401Z,88.79
2019-01-28T12:44:55.412Z,89.11
2019-01-28T12:45:55.373Z,88.69
2019-01-28T12:46:55.362Z,88.48
2019-01-28T12:47:55.353Z,88.07
2019-01-28T12:48:55.346Z,88.69
2019-01-28T12:49:55.349Z,87.76
2019-01-28T12:50:55.318Z,87.76
2019-01-28T12:51:55.326Z,88.07
2019-01-28T12:52:55.305Z,89.11